Time;durP1;ratioP1;P1;durP2;ratioP2;P2;SDS_P1;SDS_P2;PMS_P1;PMS_P2;Temp;Humidity;BMP_temperature;BMP_pressure;BME280_temperature;BME280_humidity;BME280_pressure;Samples;Min_cycle;Max_cycle;Signal;HPM_P1;HPM_P2
2023/07/28 00:00:08;;;;;;;5.97;5.38;;;;;;;18.42;89.59;100421.31;5067351;28;20025;-73
2023/07/28 00:02:33;;;;;;;6.18;5.10;;;;;;;18.45;89.31;100420.69;5054491;28;20107;-73
2023/07/28 00:04:59;;;;;;;5.65;5.25;;;;;;;18.42;89.63;100416.53;5054193;28;20366;-73
2023/07/28 00:07:24;;;;;;;5.57;5.07;;;;;;;18.44;89.52;100419.03;5064271;28;20601;-73
2023/07/28 00:09:49;;;;;;;5.20;4.82;;;;;;;18.41;89.88;100414.88;5069802;28;20082;-73
2023/07/28 00:12:15;;;;;;;5.15;4.75;;;;;;;18.42;89.67;100418.53;5066091;28;20115;-73
2023/07/28 00:14:40;;;;;;;5.50;5.10;;;;;;;18.38;89.80;100416.34;5068579;28;20094;-72
2023/07/28 00:17:05;;;;;;;5.63;5.20;;;;;;;18.39;89.86;100417.16;5070505;28;20040;-73
2023/07/28 00:19:31;;;;;;;5.85;5.20;;;;;;;18.37;89.87;100402.63;5070707;28;20028;-73
2023/07/28 00:21:56;;;;;;;5.22;4.82;;;;;;;18.38;89.70;100413.53;5069220;28;20024;-73
2023/07/28 00:24:21;;;;;;;5.60;5.20;;;;;;;18.38;90.01;100413.53;5068788;28;20028;-73
2023/07/28 00:26:47;;;;;;;5.55;5.07;;;;;;;18.40;89.60;100414.06;5068689;28;20036;-72
2023/07/28 00:29:12;;;;;;;6.15;5.55;;;;;;;18.41;89.50;100417.69;5071328;28;20029;-73
2023/07/28 00:31:37;;;;;;;5.57;5.18;;;;;;;18.43;89.68;100408.94;5070496;28;20194;-73
2023/07/28 00:34:03;;;;;;;5.10;4.70;;;;;;;18.45;89.75;100412.28;5068685;28;20025;-73
2023/07/28 00:36:29;;;;;;;6.10;5.60;;;;;;;18.42;89.67;100424.13;5070342;28;20044;-73
2023/07/28 00:38:55;;;;;;;6.30;5.80;;;;;;;18.40;90.02;100416.03;5070633;28;20464;-73
2023/07/28 00:41:20;;;;;;;6.38;5.88;;;;;;;18.38;90.08;100415.50;5069551;28;20138;-73
2023/07/28 00:43:45;;;;;;;6.60;6.10;;;;;;;18.39;89.92;100412.41;5062835;28;20029;-73
2023/07/28 00:46:12;;;;;;;6.35;5.82;;;;;;;18.39;89.71;100406.78;5071111;28;20024;-73
2023/07/28 00:48:38;;;;;;;6.25;5.75;;;;;;;18.37;90.07;100406.25;5069179;28;20024;-73
2023/07/28 00:51:03;;;;;;;6.22;5.72;;;;;;;18.35;90.30;100397.31;5069176;28;20111;-74
2023/07/28 00:53:29;;;;;;;6.78;6.18;;;;;;;18.35;90.11;100394.50;5069882;28;20112;-73
2023/07/28 00:55:55;;;;;;;6.40;5.90;;;;;;;18.38;89.85;100396.66;5067357;28;20060;-73
2023/07/28 00:58:21;;;;;;;7.65;7.05;;;;;;;18.36;90.00;100393.34;5071348;28;20044;-73
2023/07/28 01:00:47;;;;;;;6.80;6.10;;;;;;;18.39;89.82;100400.31;5067396;28;20075;-73
2023/07/28 01:03:13;;;;;;;7.70;6.95;;;;;;;18.37;90.28;100395.00;5068237;28;20491;-72
2023/07/28 01:06:12;;;;;;;7.22;6.53;;;;;;;18.40;90.02;100405.63;5070165;28;20399;-73
2023/07/28 01:08:55;;;;;;;7.50;6.78;;;;;;;18.44;89.67;100407.81;5070432;28;20028;-73
2023/07/28 01:11:21;;;;;;;7.80;7.10;;;;;;;18.36;90.03;100410.22;5069050;28;20044;-73
2023/07/28 01:13:46;;;;;;;7.78;7.07;;;;;;;18.36;90.05;100417.81;5068060;28;20724;-73
2023/07/28 01:16:12;;;;;;;7.75;7.15;;;;;;;18.37;90.29;100411.88;5066705;28;20087;-72
2023/07/28 01:18:37;;;;;;;8.25;7.65;;;;;;;18.34;90.22;100412.50;5069116;28;20051;-73
2023/07/28 01:21:07;;;;;;;7.53;6.93;;;;;;;18.38;90.20;100416.34;5069749;28;20028;-73
2023/07/28 01:23:38;;;;;;;8.10;7.40;;;;;;;18.37;90.37;100416.66;5069351;28;20418;-73
2023/07/28 01:26:10;;;;;;;7.78;7.07;;;;;;;18.40;90.47;100414.06;5069886;28;20086;-72
2023/07/28 01:28:37;;;;;;;8.68;7.80;;;;;;;18.36;90.22;100410.22;5070808;28;20501;-72
2023/07/28 01:31:04;;;;;;;8.05;7.35;;;;;;;18.37;90.38;100422.28;5067916;28;20036;-73
2023/07/28 01:33:29;;;;;;;8.70;8.00;;;;;;;18.39;90.22;100418.03;5056346;28;20209;-73
2023/07/28 01:35:55;;;;;;;8.23;7.53;;;;;;;18.38;90.42;100412.69;5050785;28;20505;-74
2023/07/28 01:38:20;;;;;;;8.93;8.13;;;;;;;18.39;90.14;100420.81;5061037;28;20469;-72
2023/07/28 01:40:46;;;;;;;8.80;8.00;;;;;;;18.39;90.47;100419.97;5073632;28;20059;-73
2023/07/28 01:43:11;;;;;;;8.90;8.10;;;;;;;18.39;90.45;100419.97;5070224;28;20028;-73
2023/07/28 01:45:37;;;;;;;9.77;8.63;;;;;;;18.39;90.25;100419.97;5071459;28;20464;-73
2023/07/28 01:48:02;;;;;;;9.05;8.25;;;;;;;18.37;90.55;100423.09;5069035;28;20345;-73
2023/07/28 01:50:27;;;;;;;9.07;7.60;;;;;;;18.36;90.44;100423.44;5061696;28;20048;-73
2023/07/28 01:52:53;;;;;;;8.75;8.05;;;;;;;18.40;90.21;100421.66;5053342;28;20111;-72
2023/07/28 01:55:18;;;;;;;8.88;8.18;;;;;;;18.36;90.54;100424.25;5073386;28;20495;-73
2023/07/28 01:57:57;;;;;;;9.82;9.02;;;;;;;18.38;90.64;100421.94;5073311;28;20436;-72
2023/07/28 02:00:23;;;;;;;9.82;8.98;;;;;;;18.35;90.54;100421.75;5065613;28;20029;-73
2023/07/28 02:02:49;;;;;;;10.32;9.43;;;;;;;18.33;90.46;100424.06;5067714;28;20047;-72
2023/07/28 02:05:14;;;;;;;10.20;9.30;;;;;;;18.36;90.41;100424.25;5056696;28;20499;-73
2023/07/28 02:07:39;;;;;;;10.52;9.60;;;;;;;18.36;90.52;100420.63;5053880;28;20028;-73
2023/07/28 02:10:05;;;;;;;9.98;9.07;;;;;;;18.35;90.61;100419.81;5058605;28;20174;-73
2023/07/28 02:12:30;;;;;;;9.98;9.07;;;;;;;18.32;90.60;100417.63;5072989;28;20032;-73
2023/07/28 02:14:56;;;;;;;10.55;9.65;;;;;;;18.34;90.44;100420.09;5063465;28;20041;-73
2023/07/28 02:17:21;;;;;;;11.63;10.43;;;;;;;18.33;90.35;100416.47;5053540;28;20029;-73
2023/07/28 02:19:47;;;;;;;10.23;9.32;;;;;;;18.36;90.45;100417.81;5034147;28;20024;-73
2023/07/28 02:22:13;;;;;;;11.45;10.35;;;;;;;18.33;90.54;100408.03;5051901;28;20033;-72
2023/07/28 02:24:38;;;;;;;12.02;10.77;;;;;;;18.32;90.38;100414.81;5053269;28;20056;-73
2023/07/28 02:27:03;;;;;;;12.65;11.23;;;;;;;18.32;90.61;100414.81;5052491;28;20068;-73
2023/07/28 02:29:29;;;;;;;12.30;11.10;;;;;;;18.32;90.73;100423.22;5051670;28;20048;-72
2023/07/28 02:31:54;;;;;;;12.10;10.88;;;;;;;18.32;90.71;100419.59;5052847;28;20087;-73
2023/07/28 02:34:19;;;;;;;12.07;10.90;;;;;;;18.35;90.50;100425.41;5049527;28;20029;-73
2023/07/28 02:36:45;;;;;;;12.10;10.93;;;;;;;18.34;90.49;100423.72;5051757;28;20033;-73
2023/07/28 02:39:10;;;;;;;12.23;11.05;;;;;;;18.37;90.25;100420.31;5049509;28;20043;-73
2023/07/28 02:41:35;;;;;;;12.73;11.43;;;;;;;18.35;90.62;100427.38;5050557;28;20032;-73
2023/07/28 02:44:01;;;;;;;12.73;11.45;;;;;;;18.35;90.60;100421.75;5045951;28;20029;-72
2023/07/28 02:46:26;;;;;;;12.65;11.45;;;;;;;18.35;90.60;100425.41;5053014;28;20067;-73
2023/07/28 02:48:51;;;;;;;13.73;12.43;;;;;;;18.35;90.42;100419.81;5049701;28;20017;-73
2023/07/28 02:51:17;;;;;;;14.30;12.18;;;;;;;18.39;90.49;100429.25;5047343;28;20072;-73
2023/07/28 02:53:42;;;;;;;14.00;11.65;;;;;;;18.39;90.32;100432.06;5049285;28;20025;-73
2023/07/28 02:56:07;;;;;;;13.73;12.27;;;;;;;18.39;90.41;100436.81;5047438;28;20059;-73
2023/07/28 02:58:32;;;;;;;14.52;13.02;;;;;;;18.37;90.52;100439.13;5049734;28;20025;-73
2023/07/28 03:00:58;;;;;;;13.77;12.32;;;;;;;18.40;90.32;100438.50;5051500;28;20059;-73
2023/07/28 03:03:24;;;;;;;15.48;13.63;;;;;;;18.38;90.45;100440.78;5050309;28;20049;-73
2023/07/28 03:05:52;;;;;;;14.85;13.25;;;;;;;18.37;90.65;100442.78;5050673;28;20036;-74
2023/07/28 03:08:18;;;;;;;15.27;13.70;;;;;;;18.39;90.11;100434.88;5043822;28;20155;-73
2023/07/28 03:10:43;;;;;;;16.92;14.27;;;;;;;18.36;90.50;100443.09;5047721;28;20104;-73
2023/07/28 03:13:08;;;;;;;15.90;13.43;;;;;;;18.36;90.40;100443.94;5045255;28;20017;-73
2023/07/28 03:15:34;;;;;;;17.85;14.52;;;;;;;18.37;90.64;100436.31;5051982;28;20063;-73
2023/07/28 03:17:59;;;;;;;16.90;13.55;;;;;;;18.38;90.49;100424.75;5066347;28;20028;-73
2023/07/28 03:20:25;;;;;;;17.77;14.38;;;;;;;18.38;90.62;100438.00;5070199;28;20059;-73
2023/07/28 03:22:50;;;;;;;15.52;13.93;;;;;;;18.39;90.43;100439.63;5067382;28;20056;-73
2023/07/28 03:25:15;;;;;;;18.13;15.40;;;;;;;18.35;90.52;100445.09;5064692;28;20029;-73
2023/07/28 03:27:41;;;;;;;16.90;14.13;;;;;;;18.36;90.53;100443.09;5071054;28;20032;-73
2023/07/28 03:30:09;;;;;;;15.63;13.90;;;;;;;18.35;90.56;100449.84;5068529;28;20029;-73
2023/07/28 03:32:34;;;;;;;17.92;14.48;;;;;;;18.37;90.31;100453.19;5070380;28;20016;-74
2023/07/28 03:34:59;;;;;;;17.73;14.60;;;;;;;18.38;90.53;100454.84;5054887;28;20021;-73
2023/07/28 03:37:25;;;;;;;18.73;14.10;;;;;;;18.37;90.47;100453.19;5065565;28;20036;-73
2023/07/28 03:39:50;;;;;;;18.88;15.63;;;;;;;18.36;90.61;100455.16;5060657;28;20020;-73
2023/07/28 03:42:15;;;;;;;17.52;14.57;;;;;;;18.37;90.55;100454.00;5064715;28;20417;-73
2023/07/28 03:44:41;;;;;;;17.50;14.25;;;;;;;18.39;90.38;100465.78;5068083;28;20058;-73
2023/07/28 03:47:07;;;;;;;17.80;14.32;;;;;;;18.38;90.27;100466.91;5070490;28;20105;-73
2023/07/28 03:49:32;;;;;;;19.67;14.40;;;;;;;18.39;90.35;100473.34;5059359;28;20033;-72
2023/07/28 03:51:58;;;;;;;18.20;15.05;;;;;;;18.38;90.46;100475.34;5069353;28;20036;-73
2023/07/28 03:54:23;;;;;;;21.92;15.05;;;;;;;18.38;90.52;100478.16;5071474;28;20048;-74
2023/07/28 03:56:49;;;;;;;16.60;14.77;;;;;;;18.37;90.51;100484.09;5069671;28;20036;-73
2023/07/28 03:59:14;;;;;;;20.00;15.00;;;;;;;18.37;90.47;100478.47;5062002;28;20029;-73
2023/07/28 04:01:40;;;;;;;20.35;15.10;;;;;;;18.37;90.84;100478.47;5056177;28;20104;-73
2023/07/28 04:04:05;;;;;;;17.45;15.40;;;;;;;18.36;90.79;100471.19;5058463;28;20036;-74
2023/07/28 04:06:58;;;;;;;18.52;15.75;;;;;;;18.37;90.95;100479.31;5066490;28;20054;-73
2023/07/28 04:09:23;;;;;;;19.80;15.15;;;;;;;18.36;90.66;100480.47;5071537;28;20063;-73
2023/07/28 04:11:49;;;;;;;18.42;15.10;;;;;;;18.35;90.63;100476.00;5069956;28;20076;-73
2023/07/28 04:14:14;;;;;;;16.30;14.57;;;;;;;18.37;90.38;100481.28;5062615;28;20132;-73
2023/07/28 04:16:40;;;;;;;17.95;14.35;;;;;;;18.38;90.18;100474.50;5051024;28;20040;-73
2023/07/28 04:19:05;;;;;;;18.73;15.90;;;;;;;18.35;90.25;100476.00;5055188;28;20044;-73
2023/07/28 04:21:30;;;;;;;17.55;14.60;;;;;;;18.36;89.88;100466.41;5063141;28;20020;-73
2023/07/28 04:23:56;;;;;;;18.77;14.13;;;;;;;18.35;90.08;100470.38;5066622;28;20029;-73
2023/07/28 04:26:24;;;;;;;18.02;15.02;;;;;;;18.36;90.20;100474.00;5069078;28;20024;-74
2023/07/28 04:28:49;;;;;;;15.43;13.27;;;;;;;18.34;90.17;100479.94;5071221;28;20033;-73
2023/07/28 04:31:15;;;;;;;18.77;15.32;;;;;;;18.33;90.11;100474.63;5070361;28;20556;-74
2023/07/28 04:33:43;;;;;;;18.27;14.88;;;;;;;18.33;90.34;100481.09;5065529;28;20392;-73
2023/07/28 04:36:09;;;;;;;16.05;14.35;;;;;;;18.34;89.88;100482.75;5050818;28;20033;-73
2023/07/28 04:38:34;;;;;;;18.38;13.88;;;;;;;18.34;90.03;100473.47;5050958;28;20032;-73
2023/07/28 04:41:00;;;;;;;17.35;13.93;;;;;;;18.35;90.23;100481.63;5067332;28;20051;-72
2023/07/28 04:43:25;;;;;;;16.70;14.63;;;;;;;18.36;90.01;100476.81;5069534;28;20484;-73
2023/07/28 04:45:50;;;;;;;16.73;13.48;;;;;;;18.36;89.96;100472.03;5067279;28;20025;-74
2023/07/28 04:48:16;;;;;;;19.63;14.38;;;;;;;18.35;90.00;100469.50;5070520;28;20028;-73
2023/07/28 04:50:41;;;;;;;17.75;14.77;;;;;;;18.35;90.21;100475.13;5065090;28;20033;-74
2023/07/28 04:53:06;;;;;;;16.30;14.27;;;;;;;18.32;90.07;100465.38;5050766;28;20036;-74
2023/07/28 04:55:32;;;;;;;19.77;14.80;;;;;;;18.35;90.18;100475.13;5051057;28;20070;-73
2023/07/28 04:57:57;;;;;;;17.98;14.35;;;;;;;18.34;90.28;100473.47;5063729;28;20017;-73
2023/07/28 05:00:23;;;;;;;19.45;14.93;;;;;;;18.32;89.84;100476.63;5064274;28;20031;-73
2023/07/28 05:02:48;;;;;;;19.90;15.63;;;;;;;18.33;90.13;100483.88;5052652;28;20082;-74
2023/07/28 05:05:14;;;;;;;18.23;15.32;;;;;;;18.36;90.30;100476.81;5053422;28;20045;-73
2023/07/28 05:07:39;;;;;;;18.42;15.77;;;;;;;18.38;90.13;100477.31;5050631;28;20758;-73
2023/07/28 05:10:05;;;;;;;18.45;15.32;;;;;;;18.36;90.32;100483.28;5050981;28;20033;-73
2023/07/28 05:12:30;;;;;;;20.58;14.80;;;;;;;18.37;90.24;100482.13;5050550;28;20041;-73
2023/07/28 05:14:55;;;;;;;19.73;15.35;;;;;;;18.39;90.33;100484.59;5060953;28;20052;-73
2023/07/28 05:17:21;;;;;;;19.30;16.20;;;;;;;18.36;90.54;100488.06;5072209;28;20162;-72
2023/07/28 05:19:47;;;;;;;18.63;15.57;;;;;;;18.36;90.48;100493.69;5071929;28;20086;-72
2023/07/28 05:22:12;;;;;;;18.55;15.10;;;;;;;18.37;90.55;100498.97;5070961;28;20101;-73
2023/07/28 05:24:37;;;;;;;16.58;14.65;;;;;;;18.37;90.52;100500.97;5068556;28;20488;-73
2023/07/28 05:27:03;;;;;;;20.98;15.95;;;;;;;18.37;90.67;100504.59;5069513;28;20043;-73
2023/07/28 05:29:28;;;;;;;19.25;14.77;;;;;;;18.39;90.44;100504.28;5060143;28;20039;-73
2023/07/28 05:31:53;;;;;;;17.75;15.15;;;;;;;18.38;90.79;100509.06;5064124;28;20025;-73
2023/07/28 05:34:18;;;;;;;20.67;15.80;;;;;;;18.39;90.84;100515.50;5062525;28;20032;-73
2023/07/28 05:36:44;;;;;;;20.88;15.98;;;;;;;18.40;90.79;100511.56;5068540;28;20107;-75
2023/07/28 05:39:10;;;;;;;22.08;17.10;;;;;;;18.38;91.04;100519.47;5073202;28;20142;-74
2023/07/28 05:41:37;;;;;;;23.95;18.70;;;;;;;18.38;91.07;100531.53;5072083;28;20044;-71
2023/07/28 05:44:03;;;;;;;22.50;18.38;;;;;;;18.40;90.93;100518.03;5073665;28;20372;-74
2023/07/28 05:46:28;;;;;;;21.90;19.05;;;;;;;18.41;91.20;100521.66;5066091;28;20017;-67
2023/07/28 05:48:55;;;;;;;22.85;18.45;;;;;;;18.45;91.06;100521.88;5063806;28;20319;-75
2023/07/28 05:51:21;;;;;;;27.23;21.30;;;;;;;18.44;91.26;100526.66;5065846;28;20111;-77
2023/07/28 05:53:47;;;;;;;25.77;21.65;;;;;;;18.47;91.07;100528.00;5068767;28;20158;-76
2023/07/28 05:56:12;;;;;;;27.13;23.13;;;;;;;18.47;91.22;100530.81;5068286;28;20032;-76
2023/07/28 05:58:37;;;;;;;30.23;25.25;;;;;;;18.49;90.61;100537.78;5067524;28;20040;-77
2023/07/28 06:01:03;;;;;;;33.13;28.60;;;;;;;18.50;91.01;100527.38;5065877;28;20060;-73
2023/07/28 06:03:29;;;;;;;37.10;28.42;;;;;;;18.52;90.42;100536.34;5060298;28;20115;-75
2023/07/28 06:05:54;;;;;;;35.75;29.30;;;;;;;18.52;90.82;100527.91;5049934;28;20063;-75
2023/07/28 06:08:20;;;;;;;34.60;29.83;;;;;;;18.53;91.00;100538.00;5055414;28;20116;-75
2023/07/28 06:10:45;;;;;;;42.90;31.90;;;;;;;18.50;91.06;100533.81;5069177;28;20119;-75
2023/07/28 06:13:10;;;;;;;39.72;32.33;;;;;;;18.50;91.13;100539.44;5068133;28;20092;-75
2023/07/28 06:15:39;;;;;;;41.75;33.45;;;;;;;18.51;91.42;100534.66;5063874;28;20419;-74
2023/07/28 06:18:04;;;;;;;42.33;30.98;;;;;;;18.51;91.70;100537.47;5052608;28;20373;-75
2023/07/28 06:20:30;;;;;;;40.92;31.60;;;;;;;18.50;91.47;100533.81;5064325;28;20032;-75
2023/07/28 06:22:55;;;;;;;37.78;29.95;;;;;;;18.53;91.64;100540.81;5066936;28;20058;-75
2023/07/28 06:25:20;;;;;;;35.00;27.08;;;;;;;18.54;90.66;100529.22;5069314;28;20077;-76
2023/07/28 06:27:46;;;;;;;39.05;28.83;;;;;;;18.56;91.25;100537.38;5066632;28;20464;-75
2023/07/28 06:30:12;;;;;;;39.60;29.33;;;;;;;18.56;90.98;100535.38;5067314;28;20033;-75
2023/07/28 06:32:37;;;;;;;35.28;26.75;;;;;;;18.56;91.10;100546.63;5055630;28;20029;-75
2023/07/28 06:35:03;;;;;;;36.28;26.85;;;;;;;18.54;91.27;100545.25;5058991;28;20024;-77
2023/07/28 06:37:28;;;;;;;33.80;25.02;;;;;;;18.55;91.18;100541.31;5061290;28;20048;-72
2023/07/28 06:39:55;;;;;;;33.28;24.92;;;;;;;18.55;91.58;100547.78;5063645;28;20025;-70
2023/07/28 06:42:23;;;;;;;33.22;23.30;;;;;;;18.56;91.72;100551.41;5060432;28;20016;-70
2023/07/28 06:44:52;;;;;;;31.00;20.52;;;;;;;18.56;92.11;100548.63;5060780;28;20408;-69
2023/07/28 06:47:18;;;;;;;28.13;20.42;;;;;;;18.59;91.78;100553.59;5056766;28;20024;-69
2023/07/28 06:49:43;;;;;;;26.30;20.13;;;;;;;18.59;92.09;100553.59;5053385;28;20123;-71
2023/07/28 06:52:09;;;;;;;27.23;20.38;;;;;;;18.59;91.99;100554.44;5059868;28;20163;-71
2023/07/28 06:54:34;;;;;;;27.88;19.15;;;;;;;18.59;91.48;100557.25;5070695;28;20368;-72
2023/07/28 06:57:00;;;;;;;27.08;20.13;;;;;;;18.60;91.79;100560.88;5059594;28;20108;-72
2023/07/28 06:59:25;;;;;;;27.55;19.83;;;;;;;18.62;91.56;100559.41;5051363;28;20024;-71
2023/07/28 07:01:50;;;;;;;26.63;18.17;;;;;;;18.64;92.07;100562.75;5067491;28;20035;-70
2023/07/28 07:04:16;;;;;;;27.10;19.40;;;;;;;18.63;91.59;100565.88;5071486;28;20040;-69
2023/07/28 07:06:41;;;;;;;24.50;18.33;;;;;;;18.63;91.45;100565.88;5057003;28;20029;-72
2023/07/28 07:09:06;;;;;;;25.40;17.73;;;;;;;18.65;91.60;100569.19;5051319;28;20170;-70
2023/07/28 07:11:32;;;;;;;25.40;18.38;;;;;;;18.64;91.90;100574.00;5051582;28;20025;-71
2023/07/28 07:13:57;;;;;;;22.98;17.45;;;;;;;18.67;91.72;100571.69;5051510;28;20119;-72
2023/07/28 07:16:23;;;;;;;21.90;16.38;;;;;;;18.65;91.64;100570.03;5050912;28;20043;-70
2023/07/28 07:18:48;;;;;;;26.35;17.40;;;;;;;18.65;91.71;100581.28;5067335;28;20041;-69
2023/07/28 07:21:13;;;;;;;24.08;16.00;;;;;;;18.68;92.08;100579.81;5070737;28;20031;-70
2023/07/28 07:23:39;;;;;;;20.75;16.10;;;;;;;18.69;92.36;100578.66;5055175;28;20040;-71
2023/07/28 07:26:04;;;;;;;21.80;15.90;;;;;;;18.70;92.11;100582.31;5051250;28;20037;-71
2023/07/28 07:28:29;;;;;;;23.25;15.95;;;;;;;18.69;91.94;100589.91;5050957;28;20021;-72
2023/07/28 07:30:55;;;;;;;19.58;14.95;;;;;;;18.71;91.74;100589.66;5066618;28;20078;-71
2023/07/28 07:33:20;;;;;;;18.23;13.52;;;;;;;18.71;91.57;100586.84;5071366;28;20036;-74
2023/07/28 07:35:46;;;;;;;17.73;13.35;;;;;;;18.71;91.98;100589.66;5064751;28;20036;-74
2023/07/28 07:38:11;;;;;;;15.90;12.75;;;;;;;18.72;91.81;100599.75;5067678;28;20029;-73
2023/07/28 07:40:37;;;;;;;18.38;13.50;;;;;;;18.73;91.54;100602.22;5070198;28;20037;-73
2023/07/28 07:43:03;;;;;;;14.43;12.45;;;;;;;18.72;91.97;100606.19;5069533;28;20028;-73
2023/07/28 07:45:32;;;;;;;15.52;12.07;;;;;;;18.71;91.81;100601.72;5070528;28;20035;-73
2023/07/28 07:48:00;;;;;;;16.42;12.00;;;;;;;18.73;91.41;100602.22;5068645;28;20035;-74
2023/07/28 07:50:26;;;;;;;14.63;11.20;;;;;;;18.76;91.75;100603.59;5068664;28;20471;-73
2023/07/28 07:52:51;;;;;;;17.73;11.50;;;;;;;18.79;91.54;100602.97;5070968;28;20039;-73
2023/07/28 07:55:16;;;;;;;13.60;10.85;;;;;;;18.79;90.67;100597.34;5060929;28;20035;-72
2023/07/28 07:57:42;;;;;;;11.70;10.35;;;;;;;18.80;91.45;100601.81;5068853;28;20050;-73
2023/07/28 08:00:08;;;;;;;13.88;11.25;;;;;;;18.81;91.42;100607.13;5051655;28;20033;-73
2023/07/28 08:02:34;;;;;;;15.18;11.80;;;;;;;18.81;91.25;100603.47;5050645;28;20491;-74
2023/07/28 08:04:59;;;;;;;13.52;10.82;;;;;;;18.82;90.97;100602.31;5050116;28;20029;-73
2023/07/28 08:07:25;;;;;;;13.80;11.23;;;;;;;18.81;91.06;100615.53;5050815;28;20472;-74
2023/07/28 08:09:50;;;;;;;13.63;10.45;;;;;;;18.81;91.17;100609.91;5050253;28;20028;-73
2023/07/28 08:12:16;;;;;;;14.32;11.23;;;;;;;18.83;91.04;100615.25;5052884;28;20020;-73
2023/07/28 08:14:41;;;;;;;12.57;9.90;;;;;;;18.84;90.70;100611.28;5056925;28;20082;-73
2023/07/28 08:17:08;;;;;;;16.05;13.15;;;;;;;18.82;91.08;100617.25;5043755;28;20037;-75
2023/07/28 08:19:34;;;;;;;17.38;15.57;;;;;;;18.82;90.52;100608.81;5050123;28;20369;-75
2023/07/28 08:21:59;;;;;;;15.60;13.73;;;;;;;18.83;90.24;100618.91;5050349;28;20063;-75
2023/07/28 08:24:24;;;;;;;14.10;12.43;;;;;;;18.86;90.81;100621.09;5050123;28;20044;-77
2023/07/28 08:26:50;;;;;;;12.10;10.95;;;;;;;18.86;91.23;100620.22;5048470;28;20036;-75
2023/07/28 08:29:15;;;;;;;12.27;10.65;;;;;;;18.88;90.82;100618.78;5050205;28;20111;-76
2023/07/28 08:31:41;;;;;;;11.27;10.18;;;;;;;18.88;91.51;100618.78;5038143;28;20037;-73
2023/07/28 08:34:07;;;;;;;10.35;9.25;;;;;;;18.93;91.13;100619.81;5046512;28;20040;-73
2023/07/28 08:36:33;;;;;;;10.68;9.48;;;;;;;18.93;91.19;100626.25;5050461;28;20110;-73
2023/07/28 08:38:58;;;;;;;10.88;9.85;;;;;;;18.95;91.04;100617.53;5046667;28;20033;-73
2023/07/28 08:41:24;;;;;;;8.93;8.00;;;;;;;19.00;90.29;100623.84;5050612;28;20060;-73
2023/07/28 08:43:51;;;;;;;9.18;8.27;;;;;;;19.01;91.04;100621.88;5048146;28;20104;-74
2023/07/28 08:46:17;;;;;;;8.07;7.38;;;;;;;19.06;91.12;100622.59;5042115;28;20037;-73
2023/07/28 08:48:43;;;;;;;10.63;6.90;;;;;;;19.12;88.25;100628.94;5044801;28;20029;-74
2023/07/28 08:51:11;;;;;;;7.80;5.40;;;;;;;19.18;85.13;100627.69;5039893;28;20055;-74
2023/07/28 08:53:37;;;;;;;8.10;6.90;;;;;;;19.22;88.75;100627.88;5050047;28;20044;-75
2023/07/28 08:56:03;;;;;;;7.22;6.53;;;;;;;19.30;85.85;100627.13;5049294;28;20054;-73
2023/07/28 08:58:29;;;;;;;6.57;5.90;;;;;;;19.40;83.39;100626.88;5042582;28;20064;-74
2023/07/28 09:00:55;;;;;;;5.88;5.35;;;;;;;19.51;82.95;100633.94;5047740;28;20028;-74
2023/07/28 09:03:22;;;;;;;5.18;4.78;;;;;;;19.59;82.96;100640.78;5051437;28;20025;-73
2023/07/28 09:05:48;;;;;;;6.70;5.57;;;;;;;19.66;83.11;100634.75;5051275;28;20036;-71
2023/07/28 09:08:14;;;;;;;6.07;5.55;;;;;;;19.76;82.25;100631.66;5050601;28;20033;-71
2023/07/28 09:10:48;;;;;;;5.93;5.32;;;;;;;19.86;81.82;100637.88;5050854;28;20041;-72
2023/07/28 09:13:15;;;;;;;7.97;5.50;;;;;;;19.93;82.10;100631.78;5041882;28;20456;-73
2023/07/28 09:15:41;;;;;;;8.35;7.55;;;;;;;19.95;83.63;100634.28;5063586;28;20044;-71
2023/07/28 09:18:10;;;;;;;6.18;5.68;;;;;;;20.03;82.45;100627.88;5066951;28;20498;-72
2023/07/28 09:20:41;;;;;;;7.95;7.25;;;;;;;20.06;82.46;100627.22;5061308;28;20070;-71
2023/07/28 09:23:07;;;;;;;9.02;8.32;;;;;;;20.05;83.56;100628.38;5070757;28;20032;-72
2023/07/28 09:25:34;;;;;;;6.95;6.28;;;;;;;20.15;82.70;100628.09;5068248;28;20120;-71
2023/07/28 09:27:59;;;;;;;8.98;8.27;;;;;;;20.24;85.58;100631.81;5067641;28;20510;-71
2023/07/28 09:30:26;;;;;;;8.85;8.15;;;;;;;20.27;84.37;100633.13;5060704;28;20024;-76
2023/07/28 09:32:54;;;;;;;7.60;7.00;;;;;;;20.37;82.59;100640.50;5065586;28;20464;-73
2023/07/28 09:35:21;;;;;;;7.75;6.97;;;;;;;20.41;82.83;100627.41;5065090;28;20110;-73
2023/07/28 09:37:48;;;;;;;9.05;8.35;;;;;;;20.45;82.21;100634.06;5064601;28;20408;-74
2023/07/28 09:40:17;;;;;;;7.05;6.40;;;;;;;20.55;81.12;100636.59;5056930;28;20078;-74
2023/07/28 09:42:44;;;;;;;7.57;6.65;;;;;;;20.63;80.68;100630.16;5070905;28;20432;-74
2023/07/28 09:45:10;;;;;;;7.60;7.00;;;;;;;20.62;82.03;100636.16;5073305;28;20024;-74
2023/07/28 09:47:37;;;;;;;6.40;5.90;;;;;;;20.67;81.74;100642.50;5072902;28;20450;-75
2023/07/28 09:50:04;;;;;;;7.22;6.72;;;;;;;20.65;82.11;100636.31;5068762;28;20056;-74
2023/07/28 09:52:34;;;;;;;7.85;7.25;;;;;;;20.71;83.92;100637.84;5073117;28;20468;-74
2023/07/28 09:55:05;;;;;;;7.65;6.95;;;;;;;20.71;82.46;100645.47;5073029;28;20035;-74
2023/07/28 09:57:33;;;;;;;6.10;5.70;;;;;;;;;;5062715;28;20039;-74
2023/07/28 10:00:00;;;;;;;5.90;5.38;;;;;;;20.74;79.62;100648.47;5072017;28;20029;-74
2023/07/28 10:02:26;;;;;;;7.35;5.18;;;;;;;20.71;80.17;100651.97;5073029;28;20038;-74
2023/07/28 10:04:53;;;;;;;4.75;4.45;;;;;;;20.73;79.20;100643.97;5067963;28;20107;-74
2023/07/28 10:07:19;;;;;;;5.60;5.20;;;;;;;20.73;81.62;100643.16;5069530;28;20111;-74
2023/07/28 10:09:44;;;;;;;4.95;4.63;;;;;;;20.75;80.36;100641.69;5070478;28;20029;-74
2023/07/28 10:12:19;;;;;;;5.22;4.80;;;;;;;20.78;80.45;100657.09;5067783;28;20083;-75
2023/07/28 10:14:46;;;;;;;5.47;4.97;;;;;;;20.73;79.88;100645.97;5054880;28;20463;-76
2023/07/28 10:17:17;;;;;;;6.10;5.50;;;;;;;20.68;81.07;100649.78;5069271;28;20051;-73
2023/07/28 10:19:43;;;;;;;4.75;4.35;;;;;;;20.71;79.80;100654.78;5061347;28;20033;-74
2023/07/28 10:22:11;;;;;;;4.88;4.20;;;;;;;20.74;79.26;100651.28;5056102;28;20186;-76
2023/07/28 10:24:53;;;;;;;8.40;4.82;;;;;;;20.78;80.45;100646.66;5057300;28;20344;-76
2023/07/28 10:27:34;;;;;;;6.47;5.00;;;;;;;20.82;79.24;100652.47;5056364;28;20028;-75
2023/07/28 10:30:03;;;;;;;5.03;4.63;;;;;;;20.87;79.70;100649.53;5066539;28;20115;-74
2023/07/28 10:32:29;;;;;;;5.18;4.78;;;;;;;20.91;79.55;100652.53;5064529;28;20357;-75
2023/07/28 10:35:08;;;;;;;5.53;5.03;;;;;;;20.93;79.50;100653.00;5065211;28;20115;-72
2023/07/28 10:37:35;;;;;;;4.47;4.13;;;;;;;21.03;78.67;100653.53;5066697;28;20055;-74
2023/07/28 10:40:30;;;;;;;4.68;4.35;;;;;;;21.02;80.01;100656.66;5067372;28;20054;-74
2023/07/28 10:42:56;;;;;;;3.58;3.28;;;;;;;21.05;77.40;100653.19;5064774;28;20033;-73
2023/07/28 10:45:23;;;;;;;3.53;3.22;;;;;;;21.12;78.00;100655.53;5058694;28;20020;-71
2023/07/28 10:47:48;;;;;;;4.07;3.65;;;;;;;21.20;77.59;100649.91;5060766;28;20037;-72
2023/07/28 10:50:14;;;;;;;2.90;2.70;;;;;;;21.21;77.55;100648.75;5067917;28;20156;-75
2023/07/28 10:52:44;;;;;;;3.25;3.05;;;;;;;21.22;76.97;100649.56;5067650;28;20484;-75
2023/07/28 10:55:16;;;;;;;3.15;2.95;;;;;;;21.28;77.02;100648.25;5061719;28;20028;-73
2023/07/28 10:57:43;;;;;;;3.47;3.22;;;;;;;21.40;75.73;100644.81;5065030;28;20120;-75
2023/07/28 11:00:11;;;;;;;3.63;3.33;;;;;;;21.54;76.34;100639.84;5063852;28;20028;-75
2023/07/28 11:02:58;;;;;;;3.30;3.08;;;;;;;21.53;76.20;100633.34;5065332;28;20422;-72
2023/07/28 11:05:26;;;;;;;4.20;3.05;;;;;;;21.61;76.30;100651.44;5062319;28;20047;-74
2023/07/28 11:07:54;;;;;;;3.42;3.17;;;;;;;21.69;75.88;100642.19;5068099;28;20528;-73
2023/07/28 11:10:20;;;;;;;2.75;2.55;;;;;;;21.85;76.01;100644.47;5063233;28;20388;-74
2023/07/28 11:12:48;;;;;;;2.80;2.60;;;;;;;21.92;75.11;100639.97;5064305;28;20032;-74